createdAt,value
2023-04-15T00:02:16.569Z,2.10
2023-04-15T00:07:18.247Z,1.80
2023-04-15T00:12:19.821Z,1.90
2023-04-15T00:17:21.349Z,2.20
2023-04-15T00:22:22.916Z,2.00
2023-04-15T00:27:24.847Z,2.03
2023-04-15T00:32:26.576Z,2.00
2023-04-15T00:37:28.190Z,2.33
2023-04-15T00:42:30.252Z,1.80
2023-04-15T00:47:32.008Z,1.90
2023-04-15T00:52:34.818Z,2.07
2023-04-15T00:57:36.798Z,1.90
2023-04-15T01:02:39.380Z,1.87
2023-04-15T01:07:41.273Z,2.03
2023-04-15T01:12:43.396Z,2.30
2023-04-15T01:17:45.076Z,2.20
2023-04-15T01:22:46.707Z,1.90
2023-04-15T01:27:52.906Z,1.83
2023-04-15T01:32:54.557Z,2.00
2023-04-15T01:38:05.546Z,1.80
2023-04-15T01:43:07.419Z,1.83
2023-04-15T01:48:09.847Z,2.30
2023-04-15T01:53:12.725Z,2.20
2023-04-15T01:58:15.777Z,1.80
2023-04-15T02:03:18.270Z,2.17
2023-04-15T02:08:19.962Z,2.10
2023-04-15T02:13:21.745Z,2.23
2023-04-15T02:18:24.022Z,2.00
2023-04-15T02:23:31.544Z,1.90
2023-04-15T02:28:33.271Z,2.30
2023-04-15T02:33:35.127Z,2.50
2023-04-15T02:38:38.154Z,2.40
2023-04-15T02:43:40.148Z,2.40
2023-04-15T02:48:42.731Z,2.07
2023-04-15T02:53:44.484Z,2.03
2023-04-15T02:58:46.388Z,2.40
2023-04-15T03:03:48.058Z,2.20
2023-04-15T03:08:50.303Z,2.00
2023-04-15T03:13:52.541Z,2.10
2023-04-15T03:19:04.243Z,2.30
2023-04-15T03:24:08.262Z,2.50
2023-04-15T03:29:10.769Z,2.50
2023-04-15T03:34:14.339Z,2.17
2023-04-15T03:39:15.976Z,2.03
2023-04-15T03:44:17.662Z,2.03
2023-04-15T03:49:19.937Z,2.50
2023-04-15T03:54:22.843Z,2.23
2023-04-15T03:59:24.456Z,2.00
2023-04-15T04:04:26.131Z,2.20
2023-04-15T04:09:29.918Z,2.10
2023-04-15T04:14:31.563Z,2.23
2023-04-15T04:19:33.174Z,2.23
2023-04-15T04:24:34.813Z,2.30
2023-04-15T04:29:36.497Z,2.43
2023-04-15T04:34:38.116Z,2.33
2023-04-15T04:39:40.119Z,2.30
2023-04-15T04:44:41.772Z,2.20
2023-04-15T04:49:43.371Z,2.20
2023-04-15T04:54:58.581Z,2.20
2023-04-15T05:00:00.154Z,2.30
2023-04-15T05:05:01.880Z,2.77
2023-04-15T05:10:05.099Z,2.40
2023-04-15T05:15:07.385Z,2.10
2023-04-15T05:20:10.162Z,2.20
2023-04-15T05:25:12.069Z,2.17
2023-04-15T05:30:13.895Z,2.33
2023-04-15T05:35:15.758Z,2.30
2023-04-15T05:40:18.830Z,2.47
2023-04-15T05:45:20.766Z,2.20
2023-04-15T05:50:22.387Z,2.50
2023-04-15T05:55:24.075Z,2.13
2023-04-15T06:00:26.050Z,2.10
2023-04-15T06:05:27.977Z,2.30
2023-04-15T06:10:29.684Z,2.00
2023-04-15T06:15:31.740Z,2.10
2023-04-15T06:20:33.465Z,1.77
2023-04-15T06:25:35.426Z,2.03
2023-04-15T06:30:37.124Z,2.10
2023-04-15T06:35:39.358Z,1.80
2023-04-15T06:40:43.065Z,1.80
2023-04-15T06:45:46.093Z,1.63
2023-04-15T06:50:49.764Z,1.83
2023-04-15T06:55:52.020Z,1.70
2023-04-15T07:00:53.787Z,2.43
2023-04-15T07:05:56.460Z,1.80
2023-04-15T07:10:58.083Z,2.00
2023-04-15T07:15:59.799Z,1.80
2023-04-15T07:21:02.761Z,2.40
2023-04-15T07:26:04.526Z,2.23
2023-04-15T07:31:06.266Z,1.90
2023-04-15T07:36:07.998Z,1.90
2023-04-15T07:41:09.607Z,1.80
2023-04-15T07:46:11.556Z,2.33
2023-04-15T07:51:13.553Z,1.90
2023-04-15T07:56:15.385Z,1.83
2023-04-15T08:01:17.103Z,2.03
2023-04-15T08:06:18.777Z,2.13
2023-04-15T08:11:21.158Z,2.17
2023-04-15T08:16:25.051Z,1.73
2023-04-15T08:21:27.608Z,2.40
2023-04-15T08:26:29.181Z,1.83
2023-04-15T08:31:30.828Z,1.70
2023-04-15T08:36:32.638Z,1.70
2023-04-15T08:41:46.513Z,1.27
2023-04-15T08:46:48.288Z,1.17
2023-04-15T08:51:50.263Z,1.40
2023-04-15T08:56:52.639Z,1.20
2023-04-15T09:01:55.393Z,1.10
2023-04-15T09:06:57.352Z,0.93
2023-04-15T09:11:59.003Z,1.00
2023-04-15T09:17:03.449Z,1.20
2023-04-15T09:22:05.402Z,0.90
2023-04-15T09:27:07.537Z,1.03
2023-04-15T09:32:11.229Z,1.20
2023-04-15T09:37:24.636Z,0.70
2023-04-15T09:42:33.509Z,0.57
2023-04-15T09:47:35.080Z,0.60
2023-04-15T09:52:43.008Z,0.80
2023-04-15T09:57:47.116Z,0.63
2023-04-15T10:02:49.710Z,0.80
2023-04-15T10:07:53.466Z,0.63
2023-04-15T10:12:55.945Z,0.60
2023-04-15T10:17:58.599Z,0.40
2023-04-15T10:23:00.365Z,0.60
2023-04-15T10:28:02.806Z,0.67
2023-04-15T10:33:05.356Z,0.80
2023-04-15T10:38:38.073Z,0.50
2023-04-15T10:43:39.695Z,1.00
2023-04-15T10:48:48.279Z,0.53
2023-04-15T10:53:50.131Z,0.70
2023-04-15T10:58:52.024Z,0.80
2023-04-15T11:03:55.599Z,0.60
2023-04-15T11:08:59.368Z,0.90
2023-04-15T11:14:03.088Z,1.03
2023-04-15T11:19:04.932Z,0.90
2023-04-15T11:24:06.796Z,1.07
2023-04-15T11:29:08.532Z,1.10
2023-04-15T11:34:10.256Z,1.13
2023-04-15T11:39:11.988Z,1.20
2023-04-15T11:44:18.914Z,1.43
2023-04-15T11:49:29.173Z,1.17
2023-04-15T11:54:30.921Z,1.43
2023-04-15T11:59:46.172Z,1.17
2023-04-15T12:04:48.169Z,1.10
2023-04-15T12:09:56.685Z,1.30
2023-04-15T12:14:59.414Z,1.20
2023-04-15T12:20:01.212Z,1.30
2023-04-15T12:25:03.048Z,1.00
2023-04-15T12:30:08.228Z,1.60
2023-04-15T12:35:09.855Z,1.30
2023-04-15T12:40:11.702Z,1.20
2023-04-15T12:45:13.320Z,1.30
2023-04-15T12:50:15.099Z,1.67
2023-04-15T12:55:17.270Z,1.43
2023-04-15T13:00:19.001Z,1.67
2023-04-15T13:05:20.665Z,1.63
2023-04-15T13:10:22.276Z,1.60
2023-04-15T13:15:23.965Z,1.63
2023-04-15T13:20:26.955Z,1.87
2023-04-15T13:25:28.543Z,1.90
2023-04-15T13:30:30.194Z,1.70
2023-04-15T13:35:37.351Z,1.70
2023-04-15T13:40:38.997Z,1.80
2023-04-15T13:45:41.161Z,1.87
2023-04-15T13:50:45.520Z,2.10
2023-04-15T13:55:47.214Z,1.97
2023-04-15T14:00:48.837Z,2.10
2023-04-15T14:05:56.069Z,2.20
2023-04-15T14:10:57.992Z,2.30
2023-04-15T14:15:59.749Z,2.27
2023-04-15T14:21:01.480Z,2.60
2023-04-15T14:26:03.875Z,3.10
2023-04-15T14:31:05.669Z,3.00
2023-04-15T14:36:10.096Z,2.83
2023-04-15T14:41:12.164Z,2.60
2023-04-15T14:46:15.967Z,2.93
2023-04-15T14:51:17.667Z,2.70
2023-04-15T14:56:19.248Z,3.00
2023-04-15T15:01:21.556Z,2.57
2023-04-15T15:06:23.229Z,2.47
2023-04-15T15:11:25.501Z,2.40
2023-04-15T15:16:28.295Z,2.53
2023-04-15T15:21:30.062Z,2.33
2023-04-15T15:26:31.924Z,2.33
2023-04-15T15:31:41.954Z,2.17
2023-04-15T15:36:44.843Z,2.63
2023-04-15T15:41:46.460Z,2.30
2023-04-15T15:46:48.351Z,2.50
2023-04-15T15:51:50.234Z,2.30
2023-04-15T15:56:51.777Z,2.20
2023-04-15T16:01:53.838Z,2.30
2023-04-15T16:06:55.553Z,2.00
2023-04-15T16:11:57.829Z,2.20
2023-04-15T16:16:59.512Z,1.60
2023-04-15T16:22:01.762Z,1.70
2023-04-15T16:27:03.542Z,1.87
2023-04-15T16:32:05.942Z,2.23
2023-04-15T16:37:07.777Z,1.73
2023-04-15T16:42:10.006Z,1.83
2023-04-15T16:47:12.270Z,2.00
2023-04-15T16:52:14.219Z,1.87
2023-04-15T16:57:16.273Z,2.27
2023-04-15T17:02:18.401Z,1.97
2023-04-15T17:07:20.268Z,1.80
2023-04-15T17:12:21.833Z,2.00
2023-04-15T17:17:23.533Z,1.90
2023-04-15T17:22:25.554Z,2.13
2023-04-15T17:27:28.780Z,2.00
2023-04-15T17:32:34.412Z,2.30
2023-04-15T17:37:36.533Z,2.50
2023-04-15T17:42:38.117Z,2.30
2023-04-15T17:47:39.983Z,2.13
2023-04-15T17:52:42.167Z,2.57
2023-04-15T17:57:46.011Z,2.63
2023-04-15T18:02:48.618Z,2.80
2023-04-15T18:07:53.545Z,2.43
2023-04-15T18:12:55.866Z,2.73
2023-04-15T18:17:58.830Z,3.17
2023-04-15T18:23:00.782Z,2.70
2023-04-15T18:28:02.447Z,2.60
2023-04-15T18:33:04.886Z,3.07
2023-04-15T18:38:07.815Z,3.47
2023-04-15T18:43:09.637Z,3.47
2023-04-15T18:48:11.374Z,3.47
2023-04-15T18:53:13.094Z,3.97
2023-04-15T18:58:14.734Z,3.50
2023-04-15T19:03:16.357Z,3.53
2023-04-15T19:08:18.096Z,3.90
2023-04-15T19:13:21.280Z,3.60
2023-04-15T19:18:22.953Z,4.60
2023-04-15T19:23:24.678Z,3.87
2023-04-15T19:28:28.314Z,3.50
2023-04-15T19:33:31.704Z,4.00
2023-04-15T19:38:35.939Z,4.73
2023-04-15T19:43:37.554Z,5.00
2023-04-15T19:48:40.326Z,4.97
2023-04-15T19:53:41.979Z,6.57
2023-04-15T19:58:46.835Z,4.47
2023-04-15T20:03:48.901Z,4.77
2023-04-15T20:08:51.744Z,3.90
2023-04-15T20:13:53.648Z,4.17
2023-04-15T20:18:57.928Z,4.90
2023-04-15T20:23:59.686Z,4.10
2023-04-15T20:29:01.472Z,5.27
2023-04-15T20:34:03.211Z,4.83
2023-04-15T20:39:05.072Z,4.63
2023-04-15T20:44:06.961Z,4.97
2023-04-15T20:49:08.591Z,5.17
2023-04-15T20:54:10.365Z,4.23
2023-04-15T20:59:11.954Z,4.73
2023-04-15T21:04:14.849Z,5.53
2023-04-15T21:09:16.427Z,4.73
2023-04-15T21:14:18.164Z,5.63
2023-04-15T21:19:19.720Z,6.00
2023-04-15T21:24:22.430Z,5.47
2023-04-15T21:29:24.049Z,5.87
2023-04-15T21:34:25.737Z,5.80
2023-04-15T21:39:27.302Z,5.47
2023-04-15T21:44:28.945Z,5.83
2023-04-15T21:49:30.628Z,5.40
2023-04-15T21:54:33.682Z,5.23
2023-04-15T21:59:35.328Z,4.77
2023-04-15T22:04:36.997Z,4.70
2023-04-15T22:09:38.582Z,5.27
2023-04-15T22:14:40.453Z,5.03
2023-04-15T22:19:42.085Z,5.03
2023-04-15T22:24:43.733Z,6.10
2023-04-15T22:29:47.407Z,6.50
2023-04-15T22:34:49.040Z,5.37
2023-04-15T22:39:50.920Z,5.10
2023-04-15T22:44:55.044Z,6.10
2023-04-15T22:49:56.679Z,5.07
2023-04-15T22:54:59.660Z,5.27
2023-04-15T23:00:01.292Z,6.03
2023-04-15T23:05:03.122Z,7.50
2023-04-15T23:10:13.316Z,5.63
2023-04-15T23:15:15.443Z,6.30
2023-04-15T23:20:17.076Z,5.47
2023-04-15T23:25:22.166Z,5.67
2023-04-15T23:30:23.761Z,4.70
2023-04-15T23:35:27.639Z,5.20
2023-04-15T23:40:29.268Z,4.90
2023-04-15T23:45:30.954Z,5.17
2023-04-15T23:50:32.561Z,6.60
2023-04-15T23:55:34.845Z,5.37
